Time;durP1;ratioP1;P1;durP2;ratioP2;P2;SDS_P1;SDS_P2;PMS_P1;PMS_P2;Temp;Humidity;BMP_temperature;BMP_pressure;BME280_temperature;BME280_humidity;BME280_pressure;Samples;Min_cycle;Max_cycle;Signal;HPM_P1;HPM_P2
2021/05/22 00:01:17;;;;;;;;;;;;;;;16.63;50.63;99355.31;4422259;32;34843;-73
2021/05/22 00:03:45;;;;;;;;;;;;;;;16.44;51.24;99353.28;4421506;32;33843;-74
2021/05/22 00:06:12;;;;;;;;;;;;;;;16.13;52.01;99347.34;4421373;32;34583;-73
2021/05/22 00:08:39;;;;;;;;;;;;;;;16.66;50.67;99346.03;4419174;32;34000;-74
2021/05/22 00:11:07;;;;;;;;;;;;;;;16.62;50.49;99347.47;4423813;32;34845;-74
2021/05/22 00:13:34;;;;;;;;;;;;;;;16.96;49.71;99348.38;4426704;32;34431;-74
2021/05/22 00:16:05;;;;;;;;;;;;;;;17.14;48.70;99339.78;4433610;32;32488;-73
2021/05/22 00:18:32;;;;;;;;;;;;;;;17.16;49.04;99345.81;4424632;32;33171;-73
2021/05/22 00:21:00;;;;;;;;;;;;;;;17.04;48.72;99342.00;4425824;32;35981;-74
2021/05/22 00:23:27;;;;;;;;;;;;;;;17.04;48.97;99334.78;4411851;32;34396;-74
2021/05/22 00:25:59;;;;;;;;;;;;;;;17.05;48.47;99331.06;4416528;32;33341;-74
2021/05/22 00:28:26;;;;;;;;;;;;;;;16.90;48.88;99340.25;4415219;32;33431;-73
2021/05/22 00:30:54;;;;;;;;;;;;;;;17.00;49.09;99341.56;4421001;32;35149;-73
2021/05/22 00:33:22;;;;;;;;;;;;;;;16.55;49.83;99343.88;4428254;32;33810;-74
2021/05/22 00:35:57;;;;;;;;;;;;;;;15.93;51.09;99332.88;4411171;32;32657;-73
2021/05/22 00:38:24;;;;;;;;;;;;;;;16.49;50.23;99320.47;4405986;32;33867;-73
2021/05/22 00:40:52;;;;;;;;;;;;;;;16.51;49.84;99321.94;4410891;32;36157;-73
2021/05/22 00:43:19;;;;;;;;;;;;;;;16.49;49.74;99318.62;4434213;32;34467;-74
2021/05/22 00:45:48;;;;;;;;;;;;;;;16.62;49.72;99328.66;4408677;32;32808;-73
2021/05/22 00:48:15;;;;;;;;;;;;;;;16.59;50.07;99324.50;4403021;32;34525;-73
2021/05/22 00:50:43;;;;;;;;;;;;;;;17.17;48.78;99329.47;4402221;32;34961;-73
2021/05/22 00:53:11;;;;;;;;;;;;;;;17.00;49.58;99320.06;4410430;32;34973;-73
2021/05/22 00:55:38;;;;;;;;;;;;;;;16.51;49.88;99326.50;4409278;32;33452;-74
2021/05/22 00:58:05;;;;;;;;;;;;;;;17.17;48.53;99317.91;4399634;32;34064;-73
2021/05/22 01:00:40;;;;;;;;;;;;;;;16.60;49.85;99317.28;4422260;32;34905;-74
2021/05/22 01:03:10;;;;;;;;;;;;;;;17.04;48.90;99315.97;4421833;32;34757;-74
2021/05/22 01:05:40;;;;;;;;;;;;;;;16.63;50.40;99317.69;4426147;32;33792;-74
2021/05/22 01:08:21;;;;;;;;;;;;;;;16.63;49.83;99319.56;4420742;32;32853;-74
2021/05/22 01:10:51;;;;;;;;;;;;;;;16.98;49.00;99306.00;4417150;32;34166;-73
2021/05/22 01:13:19;;;;;;;;;;;;;;;16.67;49.34;99312.78;4407194;32;34162;-74
2021/05/22 01:15:46;;;;;;;;;;;;;;;16.65;49.57;99315.69;4421785;32;34313;-74
2021/05/22 01:18:14;;;;;;;;;;;;;;;16.92;49.05;99312.16;4405445;32;34032;-73
2021/05/22 01:20:46;;;;;;;;;;;;;;;16.89;48.99;99295.59;4418592;32;35201;-73
2021/05/22 01:23:20;;;;;;;;;;;;;;;16.02;50.46;99306.75;4402637;32;35051;-73
2021/05/22 01:25:49;;;;;;;;;;;;;;;16.44;49.52;99298.75;4417759;32;33819;-74
2021/05/22 01:28:16;;;;;;;;;;;;;;;16.88;49.50;99302.00;4411684;32;34362;-74
2021/05/22 01:30:44;;;;;;;;;;;;;;;16.96;48.77;99300.00;4406200;32;35022;-74
2021/05/22 01:33:12;;;;;;;;;;;;;;;16.79;49.13;99289.75;4407315;32;36706;-74
2021/05/22 01:35:47;;;;;;;;;;;;;;;16.53;49.38;99286.84;4411673;32;33513;-74
2021/05/22 01:38:15;;;;;;;;;;;;;;;16.56;49.40;99278.41;4422742;32;32363;-74
2021/05/22 01:40:42;;;;;;;;;;;;;;;16.67;49.65;99283.22;4412040;32;35720;-74
2021/05/22 01:43:10;;;;;;;;;;;;;;;16.72;49.35;99294.25;4420089;32;33831;-74
2021/05/22 01:45:42;;;;;;;;;;;;;;;16.83;49.55;99294.53;4414776;32;35279;-74
2021/05/22 01:48:17;;;;;;;;;;;;;;;16.49;51.50;99297.16;4411706;32;32351;-74
2021/05/22 01:51:03;;;;;;;;;;;;;;;16.81;51.48;99288.50;4423175;32;34974;-74
2021/05/22 01:53:31;;;;;;;;;;;;;;;16.35;52.96;99291.81;4416982;32;35107;-74
2021/05/22 01:55:58;;;;;;;;;;;;;;;16.92;51.36;99289.84;4420875;32;33020;-74
2021/05/22 01:58:26;;;;;;;;;;;;;;;16.85;51.65;99287.09;4415314;32;34370;-74
2021/05/22 02:00:53;;;;;;;;;;;;;;;15.77;54.80;99292.06;4403502;32;35467;-73
2021/05/22 02:03:30;;;;;;;;;;;;;;;14.53;57.84;99292.13;4422821;32;34116;-73
2021/05/22 02:05:58;;;;;;;;;;;;;;;14.50;56.57;99296.00;4406487;32;33151;-73
2021/05/22 02:08:25;;;;;;;;;;;;;;;15.15;54.68;99296.16;4409989;32;34439;-73
2021/05/22 02:10:53;;;;;;;;;;;;;;;14.59;55.89;99294.09;4402358;32;35069;-74
2021/05/22 02:13:21;;;;;;;;;;;;;;;15.30;54.20;99297.00;4422051;32;34280;-74
2021/05/22 02:15:50;;;;;;;;;;;;;;;14.11;57.63;99296.28;4413832;32;33100;-74
2021/05/22 02:18:18;;;;;;;;;;;;;;;15.13;55.47;99300.87;4417993;32;32235;-74
2021/05/22 02:20:46;;;;;;;;;;;;;;;14.87;55.81;99296.00;4406189;32;35086;-74
2021/05/22 02:23:14;;;;;;;;;;;;;;;15.26;53.77;99299.22;4414197;32;34256;-74
2021/05/22 02:25:43;;;;;;;;;;;;;;;15.70;53.16;99301.88;4410951;32;33343;-73
2021/05/22 02:28:10;;;;;;;;;;;;;;;14.87;55.47;99287.94;4411126;32;34814;-73
2021/05/22 02:30:40;;;;;;;;;;;;;;;14.79;56.10;99289.88;4418771;32;34564;-74
2021/05/22 02:33:10;;;;;;;;;;;;;;;15.06;54.66;99294.59;4409582;32;33751;-73
2021/05/22 02:35:40;;;;;;;;;;;;;;;15.39;54.50;99304.78;4423948;32;33239;-74
2021/05/22 02:38:10;;;;;;;;;;;;;;;15.81;53.66;99309.41;4423487;32;33708;-73
2021/05/22 02:40:38;;;;;;;;;;;;;;;15.01;55.18;99300.50;4408733;32;34250;-73
2021/05/22 02:43:07;;;;;;;;;;;;;;;14.83;55.95;99308.06;4406137;32;34655;-73
2021/05/22 02:45:36;;;;;;;;;;;;;;;14.56;56.86;99305.16;4421116;32;33324;-74
2021/05/22 02:48:04;;;;;;;;;;;;;;;13.96;57.92;99306.09;4402722;32;34143;-73
2021/05/22 02:50:32;;;;;;;;;;;;;;;14.66;55.99;99303.88;4407576;32;34600;-73
2021/05/22 02:53:00;;;;;;;;;;;;;;;14.86;54.64;99302.31;4412678;32;34721;-73
2021/05/22 02:55:27;;;;;;;;;;;;;;;13.81;59.29;99305.19;4408762;32;32841;-73
2021/05/22 02:57:55;;;;;;;;;;;;;;;13.91;59.69;99311.16;4422771;32;35172;-73
2021/05/22 03:00:23;;;;;;;;;;;;;;;14.34;55.94;99315.87;4419556;32;34659;-73
2021/05/22 03:02:50;;;;;;;;;;;;;;;14.98;54.99;99316.09;4420802;32;34370;-73
2021/05/22 03:05:17;;;;;;;;;;;;;;;14.11;57.93;99315.87;4407020;32;33201;-73
2021/05/22 03:07:45;;;;;;;;;;;;;;;14.48;57.21;99316.75;4415140;32;34355;-73
2021/05/22 03:10:12;;;;;;;;;;;;;;;14.94;55.48;99306.78;4405829;32;35295;-73
2021/05/22 03:12:40;;;;;;;;;;;;;;;15.04;54.58;99313.53;4424176;32;34815;-74
2021/05/22 03:15:08;;;;;;;;;;;;;;;14.56;56.52;99311.34;4403144;32;33520;-74
2021/05/22 03:17:35;;;;;;;;;;;;;;;14.44;55.91;99311.94;4401489;32;34672;-73
2021/05/22 03:20:04;;;;;;;;;;;;;;;14.62;55.86;99315.97;4420635;32;35968;-73
2021/05/22 03:22:32;;;;;;;;;;;;;;;15.14;54.72;99303.34;4409293;32;32424;-73
2021/05/22 03:24:59;;;;;;;;;;;;;;;14.77;56.19;99302.63;4419256;32;31785;-73
2021/05/22 03:27:28;;;;;;;;;;;;;;;14.46;55.69;99305.41;4431160;32;34732;-73
2021/05/22 03:29:56;;;;;;;;;;;;;;;13.70;58.89;99297.56;4406513;32;34231;-73
2021/05/22 03:32:23;;;;;;;;;;;;;;;14.49;56.73;99301.53;4413828;32;34898;-73
2021/05/22 03:34:51;;;;;;;;;;;;;;;15.02;55.67;99299.50;4422756;32;33141;-73
2021/05/22 03:37:19;;;;;;;;;;;;;;;14.30;57.56;99295.84;4424444;32;33767;-73
2021/05/22 03:39:47;;;;;;;;;;;;;;;15.07;55.37;99304.28;4410319;32;35690;-73
2021/05/22 03:42:14;;;;;;;;;;;;;;;14.59;57.38;99304.78;4421308;32;35151;-73
2021/05/22 03:44:41;;;;;;;;;;;;;;;15.15;55.64;99299.69;4410891;32;33105;-73
2021/05/22 03:47:09;;;;;;;;;;;;;;;14.85;56.73;99302.53;4424428;32;33252;-73
2021/05/22 03:49:38;;;;;;;;;;;;;;;15.05;55.14;99312.50;4404911;32;35757;-73
2021/05/22 03:52:05;;;;;;;;;;;;;;;15.65;54.39;99323.88;4418436;32;34428;-74
2021/05/22 03:54:33;;;;;;;;;;;;;;;15.45;54.96;99324.66;4403694;32;34199;-73
2021/05/22 03:57:00;;;;;;;;;;;;;;;15.51;53.54;99313.19;4413266;32;33378;-74
2021/05/22 03:59:28;;;;;;;;;;;;;;;15.86;52.45;99321.25;4413265;32;35408;-74
2021/05/22 04:01:56;;;;;;;;;;;;;;;15.76;51.73;99319.91;4405662;32;33951;-74
2021/05/22 04:04:23;;;;;;;;;;;;;;;15.68;51.73;99318.13;4409161;32;32947;-74
2021/05/22 04:06:54;;;;;;;;;;;;;;;15.61;52.23;99325.28;4408493;32;32427;-74
2021/05/22 04:09:21;;;;;;;;;;;;;;;15.90;51.59;99330.59;4417168;32;35160;-74
2021/05/22 04:11:49;;;;;;;;;;;;;;;15.84;51.43;99331.34;4418855;32;34590;-74
2021/05/22 04:14:16;;;;;;;;;;;;;;;15.55;51.41;99338.59;4415389;32;32975;-73
2021/05/22 04:16:47;;;;;;;;;;;;;;;15.92;51.41;99331.22;4404547;32;33777;-74
2021/05/22 04:19:17;;;;;;;;;;;;;;;16.00;51.34;99338.31;4419420;32;36568;-73
2021/05/22 04:21:47;;;;;;;;;;;;;;;15.31;52.55;99339.72;4405206;32;33912;-74
2021/05/22 04:24:21;;;;;;;;;;;;;;;15.44;52.34;99329.19;4423064;32;32601;-74
2021/05/22 04:26:51;;;;;;;;;;;;;;;15.55;52.10;99331.41;4406411;32;34010;-74
2021/05/22 04:29:24;;;;;;;;;;;;;;;15.72;51.05;99335.53;4417808;32;35283;-74
2021/05/22 04:31:54;;;;;;;;;;;;;;;15.67;51.00;99337.13;4419667;32;34160;-74
2021/05/22 04:34:26;;;;;;;;;;;;;;;15.79;50.77;99333.75;4421660;32;33905;-74
2021/05/22 04:36:54;;;;;;;;;;;;;;;15.87;50.95;99330.13;4424480;32;33136;-73
2021/05/22 04:39:24;;;;;;;;;;;;;;;15.99;50.13;99333.97;4402364;32;35110;-74
2021/05/22 04:41:51;;;;;;;;;;;;;;;16.08;50.70;99339.06;4414928;32;34558;-74
2021/05/22 04:44:19;;;;;;;;;;;;;;;15.80;50.12;99348.84;4420430;32;32670;-74
2021/05/22 04:46:46;;;;;;;;;;;;;;;16.06;49.24;99349.12;4401643;32;33740;-74
2021/05/22 04:49:14;;;;;;;;;;;;;;;15.82;50.20;99352.16;4404849;32;35169;-74
2021/05/22 04:51:45;;;;;;;;;;;;;;;16.05;49.79;99360.06;4418721;32;34186;-74
2021/05/22 04:54:14;;;;;;;;;;;;;;;15.94;49.27;99360.53;4422534;32;33421;-74
2021/05/22 04:56:44;;;;;;;;;;;;;;;16.06;49.41;99370.59;4405608;32;33854;-73
2021/05/22 04:59:12;;;;;;;;;;;;;;;16.06;49.28;99370.59;4419700;32;35426;-75
2021/05/22 05:01:42;;;;;;;;;;;;;;;16.16;49.27;99373.78;4416319;32;34399;-74
2021/05/22 05:04:22;;;;;;;;;;;;;;;16.37;48.90;99371.19;4417891;32;32782;-74
2021/05/22 05:06:51;;;;;;;;;;;;;;;16.01;49.09;99382.91;4406136;32;33675;-74
2021/05/22 05:09:21;;;;;;;;;;;;;;;16.06;48.55;99389.38;4403267;32;35993;-74
2021/05/22 05:11:48;;;;;;;;;;;;;;;16.21;48.28;99389.34;4404875;32;35453;-74
2021/05/22 05:14:17;;;;;;;;;;;;;;;16.40;49.11;99391.44;4405244;32;33841;-75
2021/05/22 05:17:03;;;;;;;;;;;;;;;16.24;48.68;99392.47;4406468;32;34002;-74
2021/05/22 05:19:31;;;;;;;;;;;;;;;16.52;48.53;99398.78;4422947;32;35775;-74
2021/05/22 05:21:59;;;;;;;;;;;;;;;16.26;48.53;99403.84;4421584;32;34968;-74
2021/05/22 05:24:27;;;;;;;;;;;;;;;16.52;49.31;99396.09;4432984;32;32563;-74
2021/05/22 05:26:54;;;;;;;;;;;;;;;16.58;48.75;99397.19;4402474;32;34036;-74
2021/05/22 05:29:22;;;;;;;;;;;;;;;16.56;49.52;99391.19;4409427;32;33533;-74
2021/05/22 05:31:50;;;;;;;;;;;;;;;16.65;48.89;99396.25;4409682;32;34416;-74
2021/05/22 05:34:17;;;;;;;;;;;;;;;16.65;48.20;99390.87;4418611;32;33155;-75
2021/05/22 05:36:45;;;;;;;;;;;;;;;16.60;48.97;99382.56;4422923;32;33260;-74
2021/05/22 05:39:13;;;;;;;;;;;;;;;16.65;48.72;99387.34;4425671;32;35779;-74
2021/05/22 05:41:41;;;;;;;;;;;;;;;16.47;50.32;99384.28;4408760;32;34614;-74
2021/05/22 05:44:09;;;;;;;;;;;;;;;16.95;49.13;99386.16;4421847;32;32993;-74
2021/05/22 05:46:36;;;;;;;;;;;;;;;16.83;50.07;99391.25;4421452;32;34153;-74
2021/05/22 05:49:04;;;;;;;;;;;;;;;16.63;50.56;99389.41;4407093;32;35216;-74
2021/05/22 05:51:32;;;;;;;;;;;;;;;16.76;51.58;99387.66;4415909;32;34144;-75
2021/05/22 05:54:03;;;;;;;;;;;;;;;16.85;51.56;99391.87;4403304;32;32228;-74
2021/05/22 05:56:31;;;;;;;;;;;;;;;16.75;52.72;99398.59;4409609;32;35568;-75
2021/05/22 05:58:59;;;;;;;;;;;;;;;16.85;52.90;99397.25;4403558;32;34552;-75
2021/05/22 06:01:27;;;;;;;;;;;;;;;16.98;53.16;99389.28;4422367;32;34385;-75
2021/05/22 06:03:55;;;;;;;;;;;;;;;16.94;53.64;99385.34;4417568;32;32876;-74
2021/05/22 06:06:22;;;;;;;;;;;;;;;16.78;55.48;99380.25;4408212;32;33752;-74
2021/05/22 06:08:50;;;;;;;;;;;;;;;16.25;58.75;99412.91;4429179;32;34984;-75
2021/05/22 06:11:19;;;;;;;;;;;;;;;16.13;58.39;99409.06;4409128;32;34135;-76
2021/05/22 06:13:47;;;;;;;;;;;;;;;16.54;58.21;99407.47;4405671;32;33617;-76
2021/05/22 06:16:36;;;;;;;;;;;;;;;16.16;60.91;99422.09;4417930;32;33667;-75
2021/05/22 06:19:03;;;;;;;;;;;;;;;16.04;61.34;99420.13;4417765;32;35781;-76
2021/05/22 06:21:31;;;;;;;;;;;;;;;15.36;63.81;99422.25;4432738;32;34199;-76
2021/05/22 06:23:59;;;;;;;;;;;;;;;16.10;61.61;99422.88;4411084;32;33046;-76
2021/05/22 06:26:28;;;;;;;;;;;;;;;15.50;65.24;99424.94;4418353;32;33601;-76
2021/05/22 06:28:55;;;;;;;;;;;;;;;15.23;65.26;99422.03;4406934;32;34823;-76
2021/05/22 06:31:23;;;;;;;;;;;;;;;16.25;61.55;99423.66;4417260;32;34153;-75
2021/05/22 06:33:51;;;;;;;;;;;;;;;15.85;61.91;99429.56;4406616;32;33223;-75
2021/05/22 06:36:18;;;;;;;;;;;;;;;15.89;62.91;99430.03;4411747;32;33941;-76
2021/05/22 06:38:45;;;;;;;;;;;;;;;16.22;61.26;99433.97;4413785;32;34483;-75
2021/05/22 06:41:13;;;;;;;;;;;;;;;16.17;61.72;99439.06;4410291;32;34619;-75
2021/05/22 06:43:41;;;;;;;;;;;;;;;16.22;61.13;99442.84;4423977;32;33869;-76
2021/05/22 06:48:40;;;;;;;;;;;;;;;16.33;59.58;99458.44;4411827;32;35043;-75
2021/05/22 06:51:10;;;;;;;;;;;;;;;16.71;57.95;99448.38;4409509;32;34737;-75
2021/05/22 06:53:37;;;;;;;;;;;;;;;16.83;58.08;99441.47;4424543;32;33628;-75
2021/05/22 06:56:05;;;;;;;;;;;;;;;16.39;57.82;99440.78;4403960;32;34587;-75
2021/05/22 06:58:33;;;;;;;;;;;;;;;16.52;56.92;99444.44;4424077;32;35528;-75
2021/05/22 07:01:00;;;;;;;;;;;;;;;16.20;55.97;99455.62;4439737;32;34008;-75
2021/05/22 07:03:28;;;;;;;;;;;;;;;16.48;56.69;99453.06;4416808;32;33389;-76
2021/05/22 07:05:57;;;;;;;;;;;;;;;16.10;56.76;99452.41;4419424;32;34344;-75
2021/05/22 07:08:24;;;;;;;;;;;;;;;16.42;57.55;99465.41;4424379;32;35050;-75
2021/05/22 07:10:53;;;;;;;;;;;;;;;16.62;57.32;99458.38;4404873;32;33824;-75
2021/05/22 07:13:20;;;;;;;;;;;;;;;16.19;55.67;99455.78;4425200;32;33059;-75
2021/05/22 07:15:48;;;;;;;;;;;;;;;16.13;57.82;99448.50;4423176;32;33597;-76
2021/05/22 07:18:18;;;;;;;;;;;;;;;16.05;56.51;99449.44;4411597;32;35145;-76
2021/05/22 07:20:45;;;;;;;;;;;;;;;16.91;55.69;99454.78;4412214;32;32958;-76
2021/05/22 07:23:13;;;;;;;;;;;;;;;16.54;56.72;99447.75;4418778;32;32705;-75
2021/05/22 07:25:41;;;;;;;;;;;;;;;16.61;55.76;99442.50;4407981;32;33900;-76
2021/05/22 07:28:13;;;;;;;;;;;;;;;16.74;55.90;99439.91;4402739;32;35000;-75
2021/05/22 07:30:40;;;;;;;;;;;;;;;16.70;55.70;99444.84;4424212;32;35168;-76
2021/05/22 07:33:08;;;;;;;;;;;;;;;16.97;54.59;99443.25;4418862;32;31757;-76
2021/05/22 07:35:36;;;;;;;;;;;;;;;17.13;54.45;99438.44;4417639;32;33413;-75
2021/05/22 07:38:03;;;;;;;;;;;;;;;17.40;55.12;99445.72;4423685;32;35658;-75
2021/05/22 07:40:31;;;;;;;;;;;;;;;17.64;53.55;99446.09;4403236;32;34054;-74
2021/05/22 07:42:58;;;;;;;;;;;;;;;17.62;52.10;99458.06;4424669;32;33571;-75
2021/05/22 07:45:26;;;;;;;;;;;;;;;17.52;51.85;99452.22;4416300;32;34425;-75
2021/05/22 07:47:53;;;;;;;;;;;;;;;17.43;53.98;99457.94;4405026;32;35524;-76
2021/05/22 07:50:21;;;;;;;;;;;;;;;17.37;52.46;99467.59;4426206;32;34066;-75
2021/05/22 07:52:48;;;;;;;;;;;;;;;17.53;51.50;99461.94;4421764;32;32888;-75
2021/05/22 07:55:16;;;;;;;;;;;;;;;17.53;51.33;99470.84;4420177;32;32976;-75
2021/05/22 07:57:44;;;;;;;;;;;;;;;17.43;52.57;99461.44;4410480;32;35786;-75
2021/05/22 08:00:11;;;;;;;;;;;;;;;17.39;53.00;99451.28;4423036;32;34109;-76
2021/05/22 08:02:39;;;;;;;;;;;;;;;17.51;51.33;99458.63;4417031;32;33103;-75
2021/05/22 08:05:07;;;;;;;;;;;;;;;17.53;52.27;99461.94;4405042;32;33638;-75
2021/05/22 08:07:35;;;;;;;;;;;;;;;17.29;51.94;99467.72;4402949;32;34764;-75
2021/05/22 08:10:04;;;;;;;;;;;;;;;17.39;50.39;99470.09;4418684;32;33932;-74
2021/05/22 08:12:31;;;;;;;;;;;;;;;17.61;51.50;99475.25;4428812;32;32881;-74
2021/05/22 08:14:59;;;;;;;;;;;;;;;17.73;51.17;99477.19;4402026;32;33464;-76
2021/05/22 08:17:27;;;;;;;;;;;;;;;17.73;49.92;99479.88;4417302;32;34266;-75
2021/05/22 08:19:54;;;;;;;;;;;;;;;17.60;51.24;99487.84;4424366;32;34397;-75
2021/05/22 08:22:22;;;;;;;;;;;;;;;17.33;50.36;99495.03;4424306;32;33217;-75
2021/05/22 08:24:49;;;;;;;;;;;;;;;17.25;51.60;99479.88;4431812;32;32334;-75
2021/05/22 08:27:19;;;;;;;;;;;;;;;17.29;50.73;99489.25;4418986;32;35215;-75
2021/05/22 08:29:55;;;;;;;;;;;;;;;17.52;50.53;99484.47;4422059;32;34394;-75
2021/05/22 08:32:24;;;;;;;;;;;;;;;17.81;50.27;99486.97;4411432;32;33206;-75
2021/05/22 08:34:53;;;;;;;;;;;;;;;17.73;50.54;99481.72;4425235;32;33374;-74
2021/05/22 08:37:21;;;;;;;;;;;;;;;17.86;49.85;99474.56;4401509;32;35015;-75
2021/05/22 08:39:49;;;;;;;;;;;;;;;17.48;49.64;99484.03;4419933;32;34682;-74
2021/05/22 08:42:19;;;;;;;;;;;;;;;17.93;50.27;99486.22;4430239;32;32954;-74
2021/05/22 08:44:46;;;;;;;;;;;;;;;17.91;50.36;99487.44;4402178;32;33175;-74
2021/05/22 08:47:14;;;;;;;;;;;;;;;18.16;50.10;99491.31;4401597;32;35839;-74
2021/05/22 08:49:42;;;;;;;;;;;;;;;18.21;49.60;99489.66;4419415;32;34204;-74
2021/05/22 08:52:14;;;;;;;;;;;;;;;17.66;49.27;99484.38;4418490;32;32851;-75
2021/05/22 08:54:41;;;;;;;;;;;;;;;18.01;48.65;99472.59;4405259;32;34653;-74
2021/05/22 08:57:09;;;;;;;;;;;;;;;18.31;48.45;99468.63;4415556;32;34887;-74
2021/05/22 08:59:47;;;;;;;;;;;;;;;18.61;48.23;99475.34;4420727;32;33873;-74
2021/05/22 09:02:17;;;;;;;;;;;;;;;18.74;47.87;99471.84;4424334;32;33342;-74
2021/05/22 09:05:03;;;;;;;;;;;;;;;18.94;46.44;99478.97;4429780;32;33793;-74
2021/05/22 09:07:32;;;;;;;;;;;;;;;18.67;45.29;99484.47;4429869;32;34425;-74
2021/05/22 09:10:06;;;;;;;;;;;;;;;18.74;45.00;99471.84;4402124;32;32544;-74
2021/05/22 09:12:34;;;;;;;;;;;;;;;18.89;44.61;99480.63;4400005;32;33086;-74
2021/05/22 09:15:10;;;;;;;;;;;;;;;18.93;45.89;99474.59;4414728;32;34164;-75
2021/05/22 09:17:39;;;;;;;;;;;;;;;18.76;46.15;99473.31;4419206;32;35200;-74
2021/05/22 09:20:14;;;;;;;;;;;;;;;19.11;45.55;99482.09;4402930;32;35931;-75
2021/05/22 09:22:42;;;;;;;;;;;;;;;19.21;44.93;99493.31;4401626;32;34012;-74
2021/05/22 09:25:10;;;;;;;;;;;;;;;19.25;45.69;99490.00;4412903;32;32762;-74
2021/05/22 09:27:38;;;;;;;;;;;;;;;19.61;43.91;99489.59;4400764;32;35903;-75
2021/05/22 09:30:10;;;;;;;;;;;;;;;19.35;44.41;99503.09;4408133;32;34435;-75
2021/05/22 09:32:37;;;;;;;;;;;;;;;19.42;44.72;99502.06;4405942;32;33118;-75
2021/05/22 09:35:05;;;;;;;;;;;;;;;19.83;43.96;99507.22;4418439;32;33001;-75
2021/05/22 09:37:44;;;;;;;;;;;;;;;19.19;44.85;99514.28;4416442;32;35250;-76
2021/05/22 09:40:13;;;;;;;;;;;;;;;19.44;44.67;99510.78;4404103;32;34274;-75
2021/05/22 09:42:41;;;;;;;;;;;;;;;19.34;44.32;99515.75;4413988;32;34861;-75
2021/05/22 09:45:32;;;;;;;;;;;;;;;19.30;45.17;99513.66;4415663;32;34102;-76
2021/05/22 09:48:08;;;;;;;;;;;;;;;19.41;45.24;99508.50;4415501;32;34937;-76
2021/05/22 09:50:38;;;;;;;;;;;;;;;19.05;47.39;99512.56;4414774;32;35510;-75
2021/05/22 09:53:22;;;;;;;;;;;;;;;18.69;47.75;99518.28;4401335;32;32226;-76
2021/05/22 09:56:06;;;;;;;;;;;;;;;18.84;46.90;99520.81;4399051;32;33174;-77
2021/05/22 09:58:34;;;;;;;;;;;;;;;18.59;46.83;99530.50;4407255;32;34579;-75
2021/05/22 10:01:03;;;;;;;;;;;;;;;18.63;47.14;99539.81;4404744;32;34441;-75
2021/05/22 10:03:31;;;;;;;;;;;;;;;18.34;49.88;99540.94;4428832;32;31342;-76
2021/05/22 10:05:58;;;;;;;;;;;;;;;17.80;52.54;99547.19;4427682;32;34369;-75
2021/05/22 10:08:26;;;;;;;;;;;;;;;17.71;54.29;99556.44;4405602;32;34781;-75
2021/05/22 10:10:56;;;;;;;;;;;;;;;17.52;55.47;99552.56;4414955;32;35152;-75
2021/05/22 10:13:27;;;;;;;;;;;;;;;17.21;55.72;99558.44;4412408;32;34684;-76
2021/05/22 10:15:56;;;;;;;;;;;;;;;17.31;56.26;99558.94;4401243;32;33827;-76
2021/05/22 10:18:24;;;;;;;;;;;;;;;17.07;56.88;99568.22;4408446;32;35591;-75
2021/05/22 10:20:52;;;;;;;;;;;;;;;17.14;56.67;99558.37;4399590;32;34366;-75
2021/05/22 10:23:20;;;;;;;;;;;;;;;16.80;57.49;99573.50;4412756;32;32872;-75
2021/05/22 10:25:49;;;;;;;;;;;;;;;16.20;60.54;99573.72;4421289;32;35030;-75
2021/05/22 10:28:16;;;;;;;;;;;;;;;16.13;60.47;99575.47;4416512;32;34837;-75
2021/05/22 10:30:44;;;;;;;;;;;;;;;16.34;60.19;99572.88;4414530;32;32825;-75
2021/05/22 10:33:12;;;;;;;;;;;;;;;16.43;59.81;99571.78;4412812;32;33771;-75
2021/05/22 10:35:46;;;;;;;;;;;;;;;16.35;60.68;99576.41;4413798;32;33834;-75
2021/05/22 10:38:38;;;;;;;;;;;;;;;16.25;60.26;99576.66;4398919;32;35679;-75
2021/05/22 10:41:10;;;;;;;;;;;;;;;15.92;60.84;99579.88;4411750;32;34607;-76
2021/05/22 10:43:39;;;;;;;;;;;;;;;16.19;61.20;99566.69;4412773;32;33750;-75
2021/05/22 10:46:06;;;;;;;;;;;;;;;15.86;62.02;99559.19;4415998;32;33671;-75
2021/05/22 10:48:35;;;;;;;;;;;;;;;15.88;61.92;99568.69;4436680;32;34942;-75
2021/05/22 10:51:03;;;;;;;;;;;;;;;16.34;61.53;99564.00;4416756;32;34144;-76
2021/05/22 10:53:32;;;;;;;;;;;;;;;16.10;60.99;99577.69;4423953;32;33538;-76
2021/05/22 10:56:06;;;;;;;;;;;;;;;16.38;60.02;99579.59;4437276;32;33684;-75
2021/05/22 10:58:34;;;;;;;;;;;;;;;16.33;60.62;99581.94;4422182;32;35776;-75
2021/05/22 11:01:26;;;;;;;;;;;;;;;16.07;60.95;99581.56;4424751;32;35370;-76
2021/05/22 11:06:40;;;;;;;;;;;;;;;16.18;61.17;99582.97;4418674;32;33784;-75
2021/05/22 11:09:26;;;;;;;;;;;;;;;15.79;61.78;99596.59;4417162;32;35955;-75
2021/05/22 11:11:54;;;;;;;;;;;;;;;16.25;61.88;99595.44;4405744;32;33845;-77
2021/05/22 11:14:42;;;;;;;;;;;;;;;16.34;60.47;99594.34;4403334;32;33014;-76
2021/05/22 11:17:25;;;;;;;;;;;;;;;16.04;61.79;99602.59;4415312;32;33740;-76
2021/05/22 11:22:30;;;;;;;;;;;;;;;16.16;61.81;99590.37;4403945;32;32594;-76
2021/05/22 11:25:03;;;;;;;;;;;;;;;15.90;61.22;99604.22;4413693;32;33372;-75
2021/05/22 11:27:44;;;;;;;;;;;;;;;16.07;60.03;99602.22;4423091;32;34045;-75
2021/05/22 11:30:15;;;;;;;;;;;;;;;16.17;61.58;99609.00;4412159;32;33230;-75
2021/05/22 11:32:51;;;;;;;;;;;;;;;15.90;59.85;99619.47;4420709;32;34505;-75
2021/05/22 11:35:38;;;;;;;;;;;;;;;15.91;59.80;99613.09;4418507;32;33317;-76
2021/05/22 11:38:13;;;;;;;;;;;;;;;15.53;61.32;99622.16;4418545;32;33970;-75
2021/05/22 11:41:07;;;;;;;;;;;;;;;15.64;61.36;99613.69;4424317;32;35704;-76
2021/05/22 11:43:40;;;;;;;;;;;;;;;15.61;61.79;99609.53;4416672;32;34242;-75
2021/05/22 11:46:08;;;;;;;;;;;;;;;15.81;60.93;99613.37;4421453;32;34264;-75
2021/05/22 11:48:47;;;;;;;;;;;;;;;15.81;60.76;99615.22;4423363;32;33752;-76
2021/05/22 11:51:17;;;;;;;;;;;;;;;15.73;60.44;99617.97;4423552;32;34692;-75
2021/05/22 11:53:55;;;;;;;;;;;;;;;16.07;60.26;99623.69;4410804;32;34175;-75
2021/05/22 11:56:23;;;;;;;;;;;;;;;15.93;60.06;99629.84;4424652;32;34150;-75
2021/05/22 11:58:52;;;;;;;;;;;;;;;16.08;59.01;99628.88;4409871;32;33426;-75
2021/05/22 12:01:24;;;;;;;;;;;;;;;16.15;59.40;99628.97;4419649;32;36188;-76
2021/05/22 12:03:58;;;;;;;;;;;;;;;15.63;58.54;99638.84;4422720;32;34934;-75
2021/05/22 12:09:22;;;;;;;;;;;;;;;16.09;58.62;99641.28;4443186;32;32869;-71
2021/05/22 12:12:09;;;;;;;;;;;;;;;16.39;57.92;99637.63;4430845;32;35192;-70
2021/05/22 12:14:40;;;;;;;;;;;;;;;16.71;57.33;99639.91;4430335;32;33908;-70
2021/05/22 12:17:13;;;;;;;;;;;;;;;16.77;56.75;99632.97;4431575;32;33060;-73
2021/05/22 12:19:41;;;;;;;;;;;;;;;16.51;54.51;99638.00;4446439;32;34463;-73
2021/05/22 12:22:11;;;;;;;;;;;;;;;16.83;55.09;99624.16;4445479;32;34787;-73
2021/05/22 12:24:39;;;;;;;;;;;;;;;17.33;55.30;99637.56;4429368;32;34346;-73
2021/05/22 12:27:07;;;;;;;;;;;;;;;17.55;54.43;99629.34;4417475;32;32673;-73
2021/05/22 12:29:35;;;;;;;;;;;;;;;17.54;53.04;99631.22;4430450;32;34677;-73
2021/05/22 12:32:03;;;;;;;;;;;;;;;17.40;55.05;99646.56;4430241;32;34766;-73
2021/05/22 12:34:34;;;;;;;;;;;;;;;17.37;53.58;99637.00;4444547;32;35289;-72
2021/05/22 12:37:06;;;;;;;;;;;;;;;17.16;53.00;99644.22;4444821;32;33426;-73
2021/05/22 12:39:43;;;;;;;;;;;;;;;17.47;51.89;99645.59;4444549;32;33488;-72
2021/05/22 12:42:22;;;;;;;;;;;;;;;17.00;53.71;99636.38;4430762;32;35060;-73
2021/05/22 12:44:51;;;;;;;;;;;;;;;17.47;52.95;99639.41;4444887;32;34844;-73
2021/05/22 12:47:21;;;;;;;;;;;;;;;17.73;52.78;99632.41;4443330;32;33215;-73
2021/05/22 12:49:56;;;;;;;;;;;;;;;17.54;52.94;99633.06;4417753;32;33034;-73
2021/05/22 12:52:25;;;;;;;;;;;;;;;17.26;52.53;99626.72;4444256;32;34660;-74
2021/05/22 12:54:53;;;;;;;;;;;;;;;17.58;53.07;99629.78;4430093;32;34285;-73
2021/05/22 12:57:33;;;;;;;;;;;;;;;17.89;52.19;99635.69;4430326;32;32663;-73
2021/05/22 13:00:00;;;;;;;;;;;;;;;18.08;52.63;99634.16;4429962;32;33388;-74
2021/05/22 13:02:29;;;;;;;;;;;;;;;18.06;50.09;99628.13;4430028;32;35511;-73
2021/05/22 13:04:57;;;;;;;;;;;;;;;18.49;49.92;99630.53;4429513;32;33749;-73
2021/05/22 13:07:28;;;;;;;;;;;;;;;18.15;50.31;99621.56;4440665;32;32718;-73
2021/05/22 13:10:00;;;;;;;;;;;;;;;18.23;49.99;99627.63;4416717;32;33014;-73
2021/05/22 13:12:29;;;;;;;;;;;;;;;17.99;50.81;99636.16;4429603;32;36082;-71